sensor_id;sensor_type;location;lat;lon;timestamp;pressure;altitude;pressure_sealevel;temperature;humidity
59877;BME280;45749;51.140;17.184;2023-03-03T00:02:12;100591.03;;;0.94;91.38
59877;BME280;45749;51.140;17.184;2023-03-03T00:04:37;100593.63;;;0.94;91.08
59877;BME280;45749;51.140;17.184;2023-03-03T00:07:04;100597.94;;;0.96;91.16
59877;BME280;45749;51.140;17.184;2023-03-03T00:09:29;100599.66;;;0.97;91.28
59877;BME280;45749;51.140;17.184;2023-03-03T00:11:56;100598.88;;;0.93;91.44
59877;BME280;45749;51.140;17.184;2023-03-03T00:14:28;100605.84;;;0.92;91.11
59877;BME280;45749;51.140;17.184;2023-03-03T00:16:55;100601.59;;;0.88;91.34
59877;BME280;45749;51.140;17.184;2023-03-03T00:19:21;100611.13;;;0.89;91.25
59877;BME280;45749;51.140;17.184;2023-03-03T00:21:50;100608.47;;;0.91;91.42
59877;BME280;45749;51.140;17.184;2023-03-03T00:24:24;100619.75;;;0.90;91.36
59877;BME280;45749;51.140;17.184;2023-03-03T00:27:01;100623.44;;;0.83;91.17
59877;BME280;45749;51.140;17.184;2023-03-03T00:29:40;100619.19;;;0.79;91.58
59877;BME280;45749;51.140;17.184;2023-03-03T00:32:41;100617.50;;;0.78;91.61
59877;BME280;45749;51.140;17.184;2023-03-03T00:35:37;100615.03;;;0.73;92.07
59877;BME280;45749;51.140;17.184;2023-03-03T00:38:17;100604.75;;;0.68;91.97
59877;BME280;45749;51.140;17.184;2023-03-03T00:40:43;100606.59;;;0.65;92.10
59877;BME280;45749;51.140;17.184;2023-03-03T00:43:24;100603.22;;;0.61;92.19
59877;BME280;45749;51.140;17.184;2023-03-03T00:45:55;100601.59;;;0.57;92.27
59877;BME280;45749;51.140;17.184;2023-03-03T00:48:39;100600.84;;;0.54;92.58
59877;BME280;45749;51.140;17.184;2023-03-03T00:53:38;100585.34;;;0.51;92.46
59877;BME280;45749;51.140;17.184;2023-03-03T00:56:04;100591.44;;;0.50;92.40
59877;BME280;45749;51.140;17.184;2023-03-03T00:58:29;100586.31;;;0.46;92.51
59877;BME280;45749;51.140;17.184;2023-03-03T01:00:55;100588.16;;;0.43;92.58
59877;BME280;45749;51.140;17.184;2023-03-03T01:03:22;100581.31;;;0.39;92.73
59877;BME280;45749;51.140;17.184;2023-03-03T01:05:49;100577.88;;;0.38;92.87
59877;BME280;45749;51.140;17.184;2023-03-03T01:08:15;100577.94;;;0.37;92.81
59877;BME280;45749;51.140;17.184;2023-03-03T01:13:19;100571.13;;;0.31;92.85
59877;BME280;45749;51.140;17.184;2023-03-03T01:15:48;100570.25;;;0.32;93.07
59877;BME280;45749;51.140;17.184;2023-03-03T01:18:13;100562.38;;;0.35;92.78
59877;BME280;45749;51.140;17.184;2023-03-03T01:20:39;100558.91;;;0.36;92.89
59877;BME280;45749;51.140;17.184;2023-03-03T01:23:05;100553.72;;;0.36;93.19
59877;BME280;45749;51.140;17.184;2023-03-03T01:25:30;100550.06;;;0.42;93.18
59877;BME280;45749;51.140;17.184;2023-03-03T01:27:56;100545.56;;;0.49;93.14
59877;BME280;45749;51.140;17.184;2023-03-03T01:30:23;100544.59;;;0.53;93.22
59877;BME280;45749;51.140;17.184;2023-03-03T01:32:49;100547.06;;;0.57;93.07
59877;BME280;45749;51.140;17.184;2023-03-03T01:35:14;100548.75;;;0.60;93.00
59877;BME280;45749;51.140;17.184;2023-03-03T01:37:40;100541.72;;;0.62;92.95
59877;BME280;45749;51.140;17.184;2023-03-03T01:40:10;100539.97;;;0.62;92.70
59877;BME280;45749;51.140;17.184;2023-03-03T01:42:36;100536.44;;;0.65;92.68
59877;BME280;45749;51.140;17.184;2023-03-03T01:45:37;100535.59;;;0.66;93.13
59877;BME280;45749;51.140;17.184;2023-03-03T01:48:13;100533.06;;;0.63;92.94
59877;BME280;45749;51.140;17.184;2023-03-03T01:50:51;100526.03;;;0.66;93.33
59877;BME280;45749;51.140;17.184;2023-03-03T01:53:23;100531.19;;;0.68;92.76
59877;BME280;45749;51.140;17.184;2023-03-03T01:55:52;100527.72;;;0.67;92.77
59877;BME280;45749;51.140;17.184;2023-03-03T01:58:25;100526.81;;;0.68;92.85
59877;BME280;45749;51.140;17.184;2023-03-03T02:00:56;100515.69;;;0.65;92.75
59877;BME280;45749;51.140;17.184;2023-03-03T02:03:22;100518.19;;;0.68;92.64
59877;BME280;45749;51.140;17.184;2023-03-03T02:05:50;100522.38;;;0.72;92.99
59877;BME280;45749;51.140;17.184;2023-03-03T02:08:20;100519.72;;;0.75;92.70
59877;BME280;45749;51.140;17.184;2023-03-03T02:10:48;100521.53;;;0.73;92.38
59877;BME280;45749;51.140;17.184;2023-03-03T02:13:14;100514.59;;;0.72;92.56
59877;BME280;45749;51.140;17.184;2023-03-03T02:15:39;100506.78;;;0.74;92.54
59877;BME280;45749;51.140;17.184;2023-03-03T02:18:08;100500.81;;;0.70;92.45
59877;BME280;45749;51.140;17.184;2023-03-03T02:20:49;100504.13;;;0.75;92.46
59877;BME280;45749;51.140;17.184;2023-03-03T02:28:22;100511.56;;;0.58;92.59
59877;BME280;45749;51.140;17.184;2023-03-03T02:30:48;100516.00;;;0.53;92.67
59877;BME280;45749;51.140;17.184;2023-03-03T02:33:14;100509.03;;;0.55;92.99
59877;BME280;45749;51.140;17.184;2023-03-03T02:35:40;100508.06;;;0.59;92.92
59877;BME280;45749;51.140;17.184;2023-03-03T02:38:14;100512.28;;;0.63;93.14
59877;BME280;45749;51.140;17.184;2023-03-03T02:43:47;100512.22;;;0.64;93.25
59877;BME280;45749;51.140;17.184;2023-03-03T02:46:15;100523.53;;;0.63;93.13
59877;BME280;45749;51.140;17.184;2023-03-03T02:48:41;100526.06;;;0.65;93.68
59877;BME280;45749;51.140;17.184;2023-03-03T02:51:06;100530.56;;;0.60;93.51
59877;BME280;45749;51.140;17.184;2023-03-03T02:53:31;100533.25;;;0.55;93.23
59877;BME280;45749;51.140;17.184;2023-03-03T02:55:57;100543.66;;;0.55;93.24
59877;BME280;45749;51.140;17.184;2023-03-03T02:58:22;100544.56;;;0.54;93.49
59877;BME280;45749;51.140;17.184;2023-03-03T03:00:48;100552.25;;;0.57;93.56
59877;BME280;45749;51.140;17.184;2023-03-03T03:03:13;100542.81;;;0.55;93.71
59877;BME280;45749;51.140;17.184;2023-03-03T03:05:39;100542.81;;;0.55;93.68
59877;BME280;45749;51.140;17.184;2023-03-03T03:08:04;100549.78;;;0.53;93.65
59877;BME280;45749;51.140;17.184;2023-03-03T03:10:30;100542.88;;;0.52;93.77
59877;BME280;45749;51.140;17.184;2023-03-03T03:12:55;100536.75;;;0.54;93.79
59877;BME280;45749;51.140;17.184;2023-03-03T03:15:20;100538.47;;;0.55;93.94
59877;BME280;45749;51.140;17.184;2023-03-03T03:17:46;100538.50;;;0.54;94.05
59877;BME280;45749;51.140;17.184;2023-03-03T03:20:12;100531.66;;;0.51;93.98
59877;BME280;45749;51.140;17.184;2023-03-03T03:22:37;100525.69;;;0.47;94.07
59877;BME280;45749;51.140;17.184;2023-03-03T03:25:03;100522.97;;;0.52;94.27
59877;BME280;45749;51.140;17.184;2023-03-03T03:27:28;100514.41;;;0.49;94.28
59877;BME280;45749;51.140;17.184;2023-03-03T03:29:53;100520.53;;;0.46;94.39
59877;BME280;45749;51.140;17.184;2023-03-03T03:32:19;100516.31;;;0.42;94.24
59877;BME280;45749;51.140;17.184;2023-03-03T03:34:44;100497.28;;;0.43;94.62
59877;BME280;45749;51.140;17.184;2023-03-03T03:37:10;100506.03;;;0.39;94.43
59877;BME280;45749;51.140;17.184;2023-03-03T03:39:35;100509.47;;;0.39;94.54
59877;BME280;45749;51.140;17.184;2023-03-03T03:42:01;100501.75;;;0.38;94.08
59877;BME280;45749;51.140;17.184;2023-03-03T03:44:26;100508.69;;;0.36;94.43
59877;BME280;45749;51.140;17.184;2023-03-03T03:46:52;100516.63;;;0.31;94.46
59877;BME280;45749;51.140;17.184;2023-03-03T03:49:17;100514.03;;;0.31;94.44
59877;BME280;45749;51.140;17.184;2023-03-03T03:51:42;100521.81;;;0.31;94.33
59877;BME280;45749;51.140;17.184;2023-03-03T03:54:08;100518.41;;;0.29;94.29
59877;BME280;45749;51.140;17.184;2023-03-03T03:56:33;100520.22;;;0.26;94.34
59877;BME280;45749;51.140;17.184;2023-03-03T03:58:59;100521.16;;;0.23;94.62
59877;BME280;45749;51.140;17.184;2023-03-03T04:01:25;100529.94;;;0.19;94.68
59877;BME280;45749;51.140;17.184;2023-03-03T04:03:50;100529.13;;;0.17;94.84
59877;BME280;45749;51.140;17.184;2023-03-03T04:06:16;100535.19;;;0.16;95.01
59877;BME280;45749;51.140;17.184;2023-03-03T04:08:41;100536.94;;;0.17;95.18
59877;BME280;45749;51.140;17.184;2023-03-03T04:11:07;100543.75;;;0.19;95.38
59877;BME280;45749;51.140;17.184;2023-03-03T04:13:33;100543.81;;;0.18;94.99
59877;BME280;45749;51.140;17.184;2023-03-03T04:16:00;100537.78;;;0.16;95.27
59877;BME280;45749;51.140;17.184;2023-03-03T04:18:26;100543.94;;;0.13;95.43
59877;BME280;45749;51.140;17.184;2023-03-03T04:20:52;100551.81;;;0.10;95.19
59877;BME280;45749;51.140;17.184;2023-03-03T04:23:19;100552.72;;;0.08;95.49
59877;BME280;45749;51.140;17.184;2023-03-03T04:25:46;100560.59;;;0.05;95.39
59877;BME280;45749;51.140;17.184;2023-03-03T04:28:12;100558.00;;;0.03;95.64
59877;BME280;45749;51.140;17.184;2023-03-03T04:30:38;100564.19;;;-0.01;95.50
59877;BME280;45749;51.140;17.184;2023-03-03T04:33:03;100552.19;;;-0.05;95.59
59877;BME280;45749;51.140;17.184;2023-03-03T04:35:29;100560.09;;;-0.10;95.61
59877;BME280;45749;51.140;17.184;2023-03-03T04:37:54;100562.78;;;-0.14;95.54
59877;BME280;45749;51.140;17.184;2023-03-03T04:40:20;100562.78;;;-0.14;95.78
59877;BME280;45749;51.140;17.184;2023-03-03T04:42:45;100569.72;;;-0.15;95.82
59877;BME280;45749;51.140;17.184;2023-03-03T04:45:11;100567.13;;;-0.15;96.01
59877;BME280;45749;51.140;17.184;2023-03-03T04:47:37;100570.56;;;-0.14;96.01
59877;BME280;45749;51.140;17.184;2023-03-03T04:50:03;100568.88;;;-0.15;96.02
59877;BME280;45749;51.140;17.184;2023-03-03T04:52:28;100566.22;;;-0.12;95.96
59877;BME280;45749;51.140;17.184;2023-03-03T04:54:54;100565.31;;;-0.11;96.29
59877;BME280;45749;51.140;17.184;2023-03-03T04:57:19;100566.16;;;-0.11;96.25
59877;BME280;45749;51.140;17.184;2023-03-03T04:59:45;100560.25;;;-0.16;96.04
59877;BME280;45749;51.140;17.184;2023-03-03T05:02:10;100552.47;;;-0.17;96.15
59877;BME280;45749;51.140;17.184;2023-03-03T05:04:37;100552.53;;;-0.19;96.13
59877;BME280;45749;51.140;17.184;2023-03-03T05:07:02;100561.19;;;-0.20;96.14
59877;BME280;45749;51.140;17.184;2023-03-03T05:09:28;100556.88;;;-0.19;96.28
59877;BME280;45749;51.140;17.184;2023-03-03T05:11:53;100550.00;;;-0.22;96.42
59877;BME280;45749;51.140;17.184;2023-03-03T05:14:19;100546.53;;;-0.21;96.29
59877;BME280;45749;51.140;17.184;2023-03-03T05:16:44;100544.84;;;-0.22;95.99
59877;BME280;45749;51.140;17.184;2023-03-03T05:19:11;100553.47;;;-0.21;95.93
59877;BME280;45749;51.140;17.184;2023-03-03T05:21:36;100549.97;;;-0.20;96.13
59877;BME280;45749;51.140;17.184;2023-03-03T05:24:07;100556.06;;;-0.21;96.03
59877;BME280;45749;51.140;17.184;2023-03-03T05:26:33;100558.69;;;-0.23;95.84
59877;BME280;45749;51.140;17.184;2023-03-03T05:28:58;100551.84;;;-0.27;95.83
59877;BME280;45749;51.140;17.184;2023-03-03T05:31:24;100550.09;;;-0.27;95.82
59877;BME280;45749;51.140;17.184;2023-03-03T05:33:51;100547.50;;;-0.27;95.89
59877;BME280;45749;51.140;17.184;2023-03-03T05:36:17;100539.81;;;-0.30;95.99
59877;BME280;45749;51.140;17.184;2023-03-03T05:38:42;100531.09;;;-0.27;96.07
59877;BME280;45749;51.140;17.184;2023-03-03T05:41:08;100535.38;;;-0.25;96.10
59877;BME280;45749;51.140;17.184;2023-03-03T05:43:33;100545.63;;;-0.20;96.08
59877;BME280;45749;51.140;17.184;2023-03-03T05:45:59;100548.16;;;-0.17;95.98
59877;BME280;45749;51.140;17.184;2023-03-03T05:48:25;100546.31;;;-0.13;96.04
59877;BME280;45749;51.140;17.184;2023-03-03T05:50:50;100554.09;;;-0.12;96.07
59877;BME280;45749;51.140;17.184;2023-03-03T05:53:16;100550.50;;;-0.08;96.39
59877;BME280;45749;51.140;17.184;2023-03-03T05:55:42;100556.44;;;-0.03;96.28
59877;BME280;45749;51.140;17.184;2023-03-03T05:58:07;100552.88;;;0.02;96.05
59877;BME280;45749;51.140;17.184;2023-03-03T06:00:33;100557.16;;;0.03;95.79
59877;BME280;45749;51.140;17.184;2023-03-03T06:02:58;100564.09;;;0.04;95.95
59877;BME280;45749;51.140;17.184;2023-03-03T06:05:23;100560.53;;;0.06;95.73
59877;BME280;45749;51.140;17.184;2023-03-03T06:07:49;100555.41;;;0.05;95.79
59877;BME280;45749;51.140;17.184;2023-03-03T06:10:15;100552.81;;;0.03;95.74
59877;BME280;45749;51.140;17.184;2023-03-03T06:12:40;100553.66;;;0.05;96.09
59877;BME280;45749;51.140;17.184;2023-03-03T06:15:07;100558.06;;;0.02;96.00
59877;BME280;45749;51.140;17.184;2023-03-03T06:17:32;100558.16;;;-0.02;95.96
59877;BME280;45749;51.140;17.184;2023-03-03T06:19:58;100566.91;;;-0.06;96.00
59877;BME280;45749;51.140;17.184;2023-03-03T06:22:23;100586.03;;;-0.10;96.14
59877;BME280;45749;51.140;17.184;2023-03-03T06:24:49;100586.19;;;-0.16;96.13
59877;BME280;45749;51.140;17.184;2023-03-03T06:27:16;100582.75;;;-0.18;96.40
59877;BME280;45749;51.140;17.184;2023-03-03T06:29:42;100594.06;;;-0.20;96.38
59877;BME280;45749;51.140;17.184;2023-03-03T06:32:07;100595.94;;;-0.26;96.26
59877;BME280;45749;51.140;17.184;2023-03-03T06:34:33;100600.34;;;-0.29;96.38
59877;BME280;45749;51.140;17.184;2023-03-03T06:36:58;100597.69;;;-0.28;96.61
59877;BME280;45749;51.140;17.184;2023-03-03T06:39:24;100598.59;;;-0.29;96.24
59877;BME280;45749;51.140;17.184;2023-03-03T06:41:49;100589.06;;;-0.28;96.61
59877;BME280;45749;51.140;17.184;2023-03-03T06:44:15;100593.47;;;-0.32;96.31
59877;BME280;45749;51.140;17.184;2023-03-03T06:46:40;100589.09;;;-0.30;96.50
59877;BME280;45749;51.140;17.184;2023-03-03T06:49:06;100579.59;;;-0.29;96.37
59877;BME280;45749;51.140;17.184;2023-03-03T06:51:36;100581.31;;;-0.30;96.61
59877;BME280;45749;51.140;17.184;2023-03-03T06:54:15;100595.22;;;-0.32;96.17
59877;BME280;45749;51.140;17.184;2023-03-03T06:56:41;100595.22;;;-0.32;96.52
59877;BME280;45749;51.140;17.184;2023-03-03T06:59:26;100589.09;;;-0.30;96.58
59877;BME280;45749;51.140;17.184;2023-03-03T07:01:52;100590.75;;;-0.27;96.44
59877;BME280;45749;51.140;17.184;2023-03-03T07:04:29;100604.56;;;-0.25;96.59
59877;BME280;45749;51.140;17.184;2023-03-03T07:07:18;100605.38;;;-0.23;96.44
59877;BME280;45749;51.140;17.184;2023-03-03T07:09:46;100604.56;;;-0.25;96.67
59877;BME280;45749;51.140;17.184;2023-03-03T07:12:18;100613.22;;;-0.26;96.66
59877;BME280;45749;51.140;17.184;2023-03-03T07:14:48;100620.13;;;-0.25;96.66
59877;BME280;45749;51.140;17.184;2023-03-03T07:17:20;100627.03;;;-0.26;96.73
59877;BME280;45749;51.140;17.184;2023-03-03T07:19:47;100628.03;;;-0.31;96.68
59877;BME280;45749;51.140;17.184;2023-03-03T07:22:15;100626.34;;;-0.32;96.87
59877;BME280;45749;51.140;17.184;2023-03-03T07:24:42;100629.78;;;-0.33;96.70
59877;BME280;45749;51.140;17.184;2023-03-03T07:27:18;100636.78;;;-0.35;96.53
59877;BME280;45749;51.140;17.184;2023-03-03T07:29:48;100626.41;;;-0.35;96.36
59877;BME280;45749;51.140;17.184;2023-03-03T07:35:20;100622.09;;;-0.36;96.55
59877;BME280;45749;51.140;17.184;2023-03-03T07:37:49;100623.75;;;-0.34;96.34
59877;BME280;45749;51.140;17.184;2023-03-03T07:40:36;100615.91;;;-0.31;96.65
59877;BME280;45749;51.140;17.184;2023-03-03T07:45:56;100624.41;;;-0.24;96.29
59877;BME280;45749;51.140;17.184;2023-03-03T07:48:25;100619.22;;;-0.24;96.44
59877;BME280;45749;51.140;17.184;2023-03-03T07:50:57;100636.41;;;-0.20;96.60
59877;BME280;45749;51.140;17.184;2023-03-03T07:53:28;100629.44;;;-0.18;96.57
59877;BME280;45749;51.140;17.184;2023-03-03T07:55:59;100638.00;;;-0.14;96.23
59877;BME280;45749;51.140;17.184;2023-03-03T07:58:36;100625.03;;;-0.14;96.45
59877;BME280;45749;51.140;17.184;2023-03-03T08:03:47;100613.81;;;-0.15;96.20
59877;BME280;45749;51.140;17.184;2023-03-03T08:11:52;100620.81;;;-0.18;96.19
59877;BME280;45749;51.140;17.184;2023-03-03T08:14:30;100622.56;;;-0.19;95.97
59877;BME280;45749;51.140;17.184;2023-03-03T08:16:56;100636.50;;;-0.23;95.70
59877;BME280;45749;51.140;17.184;2023-03-03T08:19:22;100620.25;;;-0.31;95.92
59877;BME280;45749;51.140;17.184;2023-03-03T08:21:48;100622.91;;;-0.33;95.69
59877;BME280;45749;51.140;17.184;2023-03-03T08:24:13;100625.50;;;-0.33;95.86
59877;BME280;45749;51.140;17.184;2023-03-03T08:26:39;100612.47;;;-0.31;96.04
59877;BME280;45749;51.140;17.184;2023-03-03T08:29:04;100610.72;;;-0.29;96.18
59877;BME280;45749;51.140;17.184;2023-03-03T08:31:29;100602.84;;;-0.26;96.43
59877;BME280;45749;51.140;17.184;2023-03-03T08:33:55;100608.06;;;-0.28;96.58
59877;BME280;45749;51.140;17.184;2023-03-03T08:36:20;100603.66;;;-0.24;96.68
59877;BME280;45749;51.140;17.184;2023-03-03T08:38:46;100617.44;;;-0.22;96.39
59877;BME280;45749;51.140;17.184;2023-03-03T08:41:12;100618.22;;;-0.18;96.20
59877;BME280;45749;51.140;17.184;2023-03-03T08:43:37;100619.16;;;-0.21;96.19
59877;BME280;45749;51.140;17.184;2023-03-03T08:46:04;100620.03;;;-0.22;96.03
59877;BME280;45749;51.140;17.184;2023-03-03T08:48:30;100631.34;;;-0.25;95.80
59877;BME280;45749;51.140;17.184;2023-03-03T08:50:56;100640.88;;;-0.25;95.94
59877;BME280;45749;51.140;17.184;2023-03-03T08:53:22;100635.75;;;-0.28;96.10
59877;BME280;45749;51.140;17.184;2023-03-03T08:55:47;100634.03;;;-0.29;95.95
59877;BME280;45749;51.140;17.184;2023-03-03T08:58:14;100639.97;;;-0.24;96.46
59877;BME280;45749;51.140;17.184;2023-03-03T09:00:40;100644.31;;;-0.25;96.23
59877;BME280;45749;51.140;17.184;2023-03-03T09:03:06;100641.59;;;-0.20;96.34
59877;BME280;45749;51.140;17.184;2023-03-03T09:05:33;100641.53;;;-0.17;96.10
59877;BME280;45749;51.140;17.184;2023-03-03T09:07:59;100654.50;;;-0.17;95.97
59877;BME280;45749;51.140;17.184;2023-03-03T09:10:26;100646.72;;;-0.17;96.33
59877;BME280;45749;51.140;17.184;2023-03-03T09:12:54;100650.09;;;-0.13;96.20
59877;BME280;45749;51.140;17.184;2023-03-03T09:15:34;100649.22;;;-0.12;96.11
59877;BME280;45749;51.140;17.184;2023-03-03T09:18:50;100656.94;;;-0.11;96.37
59877;BME280;45749;51.140;17.184;2023-03-03T09:20:52;100656.94;;;-0.11;96.49
59877;BME280;45749;51.140;17.184;2023-03-03T09:23:31;100652.59;;;-0.10;96.21
59877;BME280;45749;51.140;17.184;2023-03-03T09:29:32;100667.38;;;-0.12;96.40
59877;BME280;45749;51.140;17.184;2023-03-03T09:31:51;100674.31;;;-0.13;96.27
59877;BME280;45749;51.140;17.184;2023-03-03T09:34:41;100668.25;;;-0.13;96.43
59877;BME280;45749;51.140;17.184;2023-03-03T09:37:27;100665.75;;;-0.16;96.41
59877;BME280;45749;51.140;17.184;2023-03-03T09:39:54;100663.94;;;-0.13;96.68
59877;BME280;45749;51.140;17.184;2023-03-03T09:45:32;100668.28;;;-0.15;96.39
59877;BME280;45749;51.140;17.184;2023-03-03T09:59:02;100679.31;;;-0.07;96.39
59877;BME280;45749;51.140;17.184;2023-03-03T10:12:44;100669.53;;;0.06;96.19
59877;BME280;45749;51.140;17.184;2023-03-03T10:18:00;100667.94;;;0.01;96.38
59877;BME280;45749;51.140;17.184;2023-03-03T10:20:36;100664.50;;;0.00;96.28
59877;BME280;45749;51.140;17.184;2023-03-03T11:01:15;100647.16;;;0.36;95.57
59877;BME280;45749;51.140;17.184;2023-03-03T11:03:49;100634.19;;;0.36;95.69
59877;BME280;45749;51.140;17.184;2023-03-03T11:06:39;100633.28;;;0.37;95.66
59877;BME280;45749;51.140;17.184;2023-03-03T11:12:07;100635.56;;;0.50;95.85
59877;BME280;45749;51.140;17.184;2023-03-03T11:20:22;100634.63;;;0.52;95.89
59877;BME280;45749;51.140;17.184;2023-03-03T11:25:27;100632.78;;;0.57;95.80
59877;BME280;45749;51.140;17.184;2023-03-03T11:52:37;100623.63;;;0.75;95.17
59877;BME280;45749;51.140;17.184;2023-03-03T11:55:12;100625.28;;;0.78;94.90
59877;BME280;45749;51.140;17.184;2023-03-03T11:57:41;100616.66;;;0.77;94.57
59877;BME280;45749;51.140;17.184;2023-03-03T12:03:26;100618.16;;;0.86;95.20
59877;BME280;45749;51.140;17.184;2023-03-03T12:06:03;100619.00;;;0.86;94.81
59877;BME280;45749;51.140;17.184;2023-03-03T12:16:13;100609.31;;;0.91;94.19
59877;BME280;45749;51.140;17.184;2023-03-03T12:18:49;100606.75;;;0.90;94.44
59877;BME280;45749;51.140;17.184;2023-03-03T12:26:26;100604.88;;;0.95;94.69
59877;BME280;45749;51.140;17.184;2023-03-03T12:29:06;100603.00;;;1.00;94.68
59877;BME280;45749;51.140;17.184;2023-03-03T12:40:19;100602.91;;;1.03;94.06
59877;BME280;45749;51.140;17.184;2023-03-03T12:45:47;100602.94;;;1.02;93.47
59877;BME280;45749;51.140;17.184;2023-03-03T12:48:43;100604.53;;;1.07;94.23
59877;BME280;45749;51.140;17.184;2023-03-03T12:53:49;100586.22;;;1.12;94.35
59877;BME280;45749;51.140;17.184;2023-03-03T12:56:27;100590.53;;;1.11;94.01
59877;BME280;45749;51.140;17.184;2023-03-03T12:59:00;100591.50;;;1.09;93.84
59877;BME280;45749;51.140;17.184;2023-03-03T13:04:27;100584.50;;;1.11;93.55
59877;BME280;45749;51.140;17.184;2023-03-03T13:06:58;100590.50;;;1.13;93.72
59877;BME280;45749;51.140;17.184;2023-03-03T13:09:45;100590.41;;;1.16;93.89
59877;BME280;45749;51.140;17.184;2023-03-03T13:20:02;100594.69;;;1.19;93.53
59877;BME280;45749;51.140;17.184;2023-03-03T13:22:51;100589.34;;;1.23;93.95
59877;BME280;45749;51.140;17.184;2023-03-03T13:25:34;100595.22;;;1.28;93.72
59877;BME280;45749;51.140;17.184;2023-03-03T13:28:13;100592.59;;;1.30;93.40
59877;BME280;45749;51.140;17.184;2023-03-03T13:30:47;100584.72;;;1.33;93.13
59877;BME280;45749;51.140;17.184;2023-03-03T13:33:29;100586.47;;;1.32;93.03
59877;BME280;45749;51.140;17.184;2023-03-03T13:35:59;100571.72;;;1.33;93.24
59877;BME280;45749;51.140;17.184;2023-03-03T13:39:11;100580.28;;;1.36;93.45
59877;BME280;45749;51.140;17.184;2023-03-03T13:50:02;100575.72;;;1.43;93.31
59877;BME280;45749;51.140;17.184;2023-03-03T13:52:27;100579.09;;;1.47;93.15
59877;BME280;45749;51.140;17.184;2023-03-03T14:02:55;100561.72;;;1.47;92.62
59877;BME280;45749;51.140;17.184;2023-03-03T14:11:25;100552.25;;;1.45;92.55
59877;BME280;45749;51.140;17.184;2023-03-03T14:19:47;100550.53;;;1.45;92.24
59877;BME280;45749;51.140;17.184;2023-03-03T14:22:29;100542.75;;;1.44;92.49
59877;BME280;45749;51.140;17.184;2023-03-03T14:25:16;100544.47;;;1.45;92.61
59877;BME280;45749;51.140;17.184;2023-03-03T14:35:43;100546.03;;;1.50;92.27
59877;BME280;45749;51.140;17.184;2023-03-03T14:38:15;100547.69;;;1.53;92.55
59877;BME280;45749;51.140;17.184;2023-03-03T14:40:43;100547.59;;;1.56;92.40
59877;BME280;45749;51.140;17.184;2023-03-03T14:43:38;100545.84;;;1.56;92.13
59877;BME280;45749;51.140;17.184;2023-03-03T14:48:53;100539.88;;;1.53;92.08
59877;BME280;45749;51.140;17.184;2023-03-03T14:51:24;100548.63;;;1.50;91.79
59877;BME280;45749;51.140;17.184;2023-03-03T14:53:51;100550.44;;;1.48;91.74
59877;BME280;45749;51.140;17.184;2023-03-03T14:56:22;100543.50;;;1.49;91.63
59877;BME280;45749;51.140;17.184;2023-03-03T14:58:50;100544.47;;;1.45;91.83
59877;BME280;45749;51.140;17.184;2023-03-03T15:01:34;100537.63;;;1.42;91.79
59877;BME280;45749;51.140;17.184;2023-03-03T15:04:09;100542.00;;;1.40;91.73
59877;BME280;45749;51.140;17.184;2023-03-03T15:06:47;100535.91;;;1.41;91.85
59877;BME280;45749;51.140;17.184;2023-03-03T15:09:39;100529.94;;;1.37;91.84
59877;BME280;45749;51.140;17.184;2023-03-03T15:15:01;100513.66;;;1.32;92.35
59877;BME280;45749;51.140;17.184;2023-03-03T15:25:46;100521.38;;;1.35;92.19
59877;BME280;45749;51.140;17.184;2023-03-03T15:34:20;100513.78;;;1.28;91.57
59877;BME280;45749;51.140;17.184;2023-03-03T15:37:07;100506.16;;;1.23;91.82
59877;BME280;45749;51.140;17.184;2023-03-03T15:39:57;100505.25;;;1.24;91.77
59877;BME280;45749;51.140;17.184;2023-03-03T15:50:38;100507.16;;;1.19;92.13
59877;BME280;45749;51.140;17.184;2023-03-03T15:56:24;100503.72;;;1.17;92.24
59877;BME280;45749;51.140;17.184;2023-03-03T15:59:00;100506.34;;;1.17;92.22
59877;BME280;45749;51.140;17.184;2023-03-03T16:01:58;100510.78;;;1.13;92.14
59877;BME280;45749;51.140;17.184;2023-03-03T16:04:24;100511.63;;;1.14;92.33
59877;BME280;45749;51.140;17.184;2023-03-03T16:06:58;100509.88;;;1.14;92.30
59877;BME280;45749;51.140;17.184;2023-03-03T16:09:42;100509.13;;;1.11;92.23
59877;BME280;45749;51.140;17.184;2023-03-03T16:12:26;100510.13;;;1.07;92.23
59877;BME280;45749;51.140;17.184;2023-03-03T16:23:46;100505.28;;;0.94;92.43
59877;BME280;45749;51.140;17.184;2023-03-03T16:29:06;100509.59;;;0.96;92.94
59877;BME280;45749;51.140;17.184;2023-03-03T16:34:32;100509.47;;;0.99;92.74
59877;BME280;45749;51.140;17.184;2023-03-03T16:37:13;100501.69;;;0.99;93.10
59877;BME280;45749;51.140;17.184;2023-03-03T16:40:08;100507.66;;;1.02;93.05
59877;BME280;45749;51.140;17.184;2023-03-03T16:42:34;100501.59;;;1.02;92.76
59877;BME280;45749;51.140;17.184;2023-03-03T17:06:48;100511.81;;;0.80;93.11
59877;BME280;45749;51.140;17.184;2023-03-03T17:09:26;100504.03;;;0.78;93.29
59877;BME280;45749;51.140;17.184;2023-03-03T17:14:46;100502.34;;;0.77;93.12
59877;BME280;45749;51.140;17.184;2023-03-03T17:17:35;100513.56;;;0.79;93.43
59877;BME280;45749;51.140;17.184;2023-03-03T17:20:08;100519.53;;;0.81;93.48
59877;BME280;45749;51.140;17.184;2023-03-03T17:25:22;100521.19;;;0.84;93.25
59877;BME280;45749;51.140;17.184;2023-03-03T17:31:16;100521.19;;;0.84;93.20
59877;BME280;45749;51.140;17.184;2023-03-03T17:34:10;100521.19;;;0.84;93.25
59877;BME280;45749;51.140;17.184;2023-03-03T17:37:03;100523.88;;;0.81;93.34
59877;BME280;45749;51.140;17.184;2023-03-03T17:42:46;100524.03;;;0.76;93.60
59877;BME280;45749;51.140;17.184;2023-03-03T17:45:14;100522.44;;;0.70;93.37
59877;BME280;45749;51.140;17.184;2023-03-03T17:47:49;100523.34;;;0.69;93.74
59877;BME280;45749;51.140;17.184;2023-03-03T17:58:27;100516.41;;;0.70;93.51
59877;BME280;45749;51.140;17.184;2023-03-03T18:03:53;100524.38;;;0.64;93.75